sensor_id;sensor_type;location;lat;lon;timestamp;pressure;altitude;pressure_sealevel;temperature;humidity
49297;BME280;35163;48.878;18.040;2023-04-29T00:00:42;98200.47;;;12.66;62.81
49297;BME280;35163;48.878;18.040;2023-04-29T00:03:09;98195.28;;;12.66;62.39
49297;BME280;35163;48.878;18.040;2023-04-29T00:05:36;98205.66;;;12.66;63.23
49297;BME280;35163;48.878;18.040;2023-04-29T00:08:03;98196.97;;;12.67;62.98
49297;BME280;35163;48.878;18.040;2023-04-29T00:10:30;98203.06;;;12.66;63.38
49297;BME280;35163;48.878;18.040;2023-04-29T00:12:56;98198.94;;;12.61;63.71
49297;BME280;35163;48.878;18.040;2023-04-29T00:15:23;98205.53;;;12.69;63.09
49297;BME280;35163;48.878;18.040;2023-04-29T00:17:50;98199.72;;;12.63;64.06
49297;BME280;35163;48.878;18.040;2023-04-29T00:20:16;98191.66;;;12.70;63.35
49297;BME280;35163;48.878;18.040;2023-04-29T00:22:43;98179.91;;;12.61;63.60
49297;BME280;35163;48.878;18.040;2023-04-29T00:25:10;98185.59;;;12.50;64.44
49297;BME280;35163;48.878;18.040;2023-04-29T00:27:37;98185.53;;;12.51;64.29
49297;BME280;35163;48.878;18.040;2023-04-29T00:30:06;98187.13;;;12.54;63.86
49297;BME280;35163;48.878;18.040;2023-04-29T00:32:33;98175.78;;;12.57;63.62
49297;BME280;35163;48.878;18.040;2023-04-29T00:35:00;98180.28;;;12.53;63.82
49297;BME280;35163;48.878;18.040;2023-04-29T00:37:27;98183.81;;;12.50;64.33
49297;BME280;35163;48.878;18.040;2023-04-29T00:39:54;98180.28;;;12.53;63.83
49297;BME280;35163;48.878;18.040;2023-04-29T00:42:20;98178.44;;;12.55;63.77
49297;BME280;35163;48.878;18.040;2023-04-29T00:44:47;98178.69;;;12.49;63.87
49297;BME280;35163;48.878;18.040;2023-04-29T00:47:14;98176.97;;;12.49;63.83
49297;BME280;35163;48.878;18.040;2023-04-29T00:49:41;98176.03;;;12.50;63.62
49297;BME280;35163;48.878;18.040;2023-04-29T00:52:10;98176.13;;;12.49;64.27
49297;BME280;35163;48.878;18.040;2023-04-29T00:54:37;98171.72;;;12.51;63.54
49297;BME280;35163;48.878;18.040;2023-04-29T00:57:04;98173.38;;;12.52;63.90
49297;BME280;35163;48.878;18.040;2023-04-29T00:59:32;98156.28;;;12.48;64.28
49297;BME280;35163;48.878;18.040;2023-04-29T01:02:01;98161.34;;;12.51;64.11
49297;BME280;35163;48.878;18.040;2023-04-29T01:04:29;98149.31;;;12.48;63.83
49297;BME280;35163;48.878;18.040;2023-04-29T01:07:15;98146.75;;;12.48;64.29
49297;BME280;35163;48.878;18.040;2023-04-29T01:12:28;98146.00;;;12.46;64.40
49297;BME280;35163;48.878;18.040;2023-04-29T01:15:09;98151.91;;;12.48;64.36
49297;BME280;35163;48.878;18.040;2023-04-29T01:17:55;98148.38;;;12.51;64.57
49297;BME280;35163;48.878;18.040;2023-04-29T01:20:23;98151.81;;;12.51;64.33
49297;BME280;35163;48.878;18.040;2023-04-29T01:22:50;98151.81;;;12.51;64.28
49297;BME280;35163;48.878;18.040;2023-04-29T01:25:20;98151.88;;;12.50;64.37
49297;BME280;35163;48.878;18.040;2023-04-29T01:38:48;98141.81;;;12.42;64.64
49297;BME280;35163;48.878;18.040;2023-04-29T01:41:30;98141.59;;;12.27;65.41
49297;BME280;35163;48.878;18.040;2023-04-29T01:44:03;98140.47;;;12.33;64.73
49297;BME280;35163;48.878;18.040;2023-04-29T01:46:33;98140.34;;;12.36;64.56
49297;BME280;35163;48.878;18.040;2023-04-29T01:49:00;98151.41;;;12.40;64.01
49297;BME280;35163;48.878;18.040;2023-04-29T01:51:29;98166.16;;;12.39;64.82
49297;BME280;35163;48.878;18.040;2023-04-29T01:53:57;98153.06;;;12.43;64.10
49297;BME280;35163;48.878;18.040;2023-04-29T01:56:24;98160.75;;;12.44;64.25
49297;BME280;35163;48.878;18.040;2023-04-29T01:58:51;98164.25;;;12.43;64.29
49297;BME280;35163;48.878;18.040;2023-04-29T02:01:17;98161.94;;;12.37;64.83
49297;BME280;35163;48.878;18.040;2023-04-29T02:03:44;98162.06;;;12.34;64.88
49297;BME280;35163;48.878;18.040;2023-04-29T02:06:11;98143.47;;;12.24;66.00
49297;BME280;35163;48.878;18.040;2023-04-29T02:08:38;98146.56;;;12.32;65.12
49297;BME280;35163;48.878;18.040;2023-04-29T02:11:04;98156.66;;;12.38;65.06
49297;BME280;35163;48.878;18.040;2023-04-29T02:13:31;98143.06;;;12.33;65.32
49297;BME280;35163;48.878;18.040;2023-04-29T02:16:09;98145.34;;;12.41;65.20
49297;BME280;35163;48.878;18.040;2023-04-29T02:18:36;98146.72;;;12.29;65.75
49297;BME280;35163;48.878;18.040;2023-04-29T02:21:03;98142.25;;;12.33;64.57
49297;BME280;35163;48.878;18.040;2023-04-29T02:23:30;98140.59;;;12.30;64.81
49297;BME280;35163;48.878;18.040;2023-04-29T02:25:57;98144.88;;;12.31;64.88
49297;BME280;35163;48.878;18.040;2023-04-29T02:28:23;98145.16;;;12.25;65.42
49297;BME280;35163;48.878;18.040;2023-04-29T02:30:50;98147.75;;;12.25;65.09
49297;BME280;35163;48.878;18.040;2023-04-29T02:33:17;98153.56;;;12.30;65.10
49297;BME280;35163;48.878;18.040;2023-04-29T02:35:43;98156.16;;;12.30;65.13
49297;BME280;35163;48.878;18.040;2023-04-29T02:38:10;98163.94;;;12.30;65.47
49297;BME280;35163;48.878;18.040;2023-04-29T02:40:41;98160.31;;;12.34;65.72
49297;BME280;35163;48.878;18.040;2023-04-29T02:43:08;98158.81;;;12.29;65.94
49297;BME280;35163;48.878;18.040;2023-04-29T02:45:35;98157.84;;;12.31;65.94
49297;BME280;35163;48.878;18.040;2023-04-29T02:48:02;98153.28;;;12.36;65.58
49297;BME280;35163;48.878;18.040;2023-04-29T02:50:29;98161.84;;;12.38;65.17
49297;BME280;35163;48.878;18.040;2023-04-29T02:52:56;98155.72;;;12.41;65.26
49297;BME280;35163;48.878;18.040;2023-04-29T02:55:23;98157.25;;;12.45;64.43
49297;BME280;35163;48.878;18.040;2023-04-29T02:57:49;98156.28;;;12.48;64.21
49297;BME280;35163;48.878;18.040;2023-04-29T03:00:16;98149.31;;;12.48;64.57
49297;BME280;35163;48.878;18.040;2023-04-29T03:02:43;98150.13;;;12.50;64.14
49297;BME280;35163;48.878;18.040;2023-04-29T03:05:09;98156.47;;;12.43;64.76
49297;BME280;35163;48.878;18.040;2023-04-29T03:07:36;98150.47;;;12.43;64.67
49297;BME280;35163;48.878;18.040;2023-04-29T03:10:04;98149.69;;;12.41;64.68
49297;BME280;35163;48.878;18.040;2023-04-29T03:12:31;98156.81;;;12.35;65.27
49297;BME280;35163;48.878;18.040;2023-04-29T03:14:57;98145.44;;;12.38;65.42
49297;BME280;35163;48.878;18.040;2023-04-29T03:17:24;98133.19;;;12.42;65.03
49297;BME280;35163;48.878;18.040;2023-04-29T03:19:51;98142.59;;;12.44;64.68
49297;BME280;35163;48.878;18.040;2023-04-29T03:22:20;98140.88;;;12.45;64.99
49297;BME280;35163;48.878;18.040;2023-04-29T03:24:47;98138.53;;;12.38;65.26
49297;BME280;35163;48.878;18.040;2023-04-29T03:27:14;98137.81;;;12.35;66.03
49297;BME280;35163;48.878;18.040;2023-04-29T03:29:41;98126.63;;;12.34;65.24
49297;BME280;35163;48.878;18.040;2023-04-29T03:32:08;98127.19;;;12.41;65.23
49297;BME280;35163;48.878;18.040;2023-04-29T03:34:34;98133.03;;;12.46;64.85
49297;BME280;35163;48.878;18.040;2023-04-29T03:37:01;98142.69;;;12.43;65.00
49297;BME280;35163;48.878;18.040;2023-04-29T03:39:28;98140.00;;;12.44;64.71
49297;BME280;35163;48.878;18.040;2023-04-29T03:41:58;98139.09;;;12.45;64.94
49297;BME280;35163;48.878;18.040;2023-04-29T03:44:25;98142.53;;;12.46;64.15
49297;BME280;35163;48.878;18.040;2023-04-29T03:46:52;98148.50;;;12.48;64.45
49297;BME280;35163;48.878;18.040;2023-04-29T03:49:18;98147.59;;;12.49;64.09
49297;BME280;35163;48.878;18.040;2023-04-29T03:51:45;98147.59;;;12.49;64.15
49297;BME280;35163;48.878;18.040;2023-04-29T03:54:12;98155.16;;;12.54;63.60
49297;BME280;35163;48.878;18.040;2023-04-29T03:56:39;98156.28;;;12.48;64.06
49297;BME280;35163;48.878;18.040;2023-04-29T03:59:06;98161.34;;;12.51;63.75
49297;BME280;35163;48.878;18.040;2023-04-29T04:01:33;98158.81;;;12.49;63.96
49297;BME280;35163;48.878;18.040;2023-04-29T04:04:02;98158.09;;;12.46;63.98
49297;BME280;35163;48.878;18.040;2023-04-29T04:06:29;98152.63;;;12.52;63.74
49297;BME280;35163;48.878;18.040;2023-04-29T04:08:57;98150.91;;;12.52;63.84
49297;BME280;35163;48.878;18.040;2023-04-29T04:11:23;98157.81;;;12.52;63.31
49297;BME280;35163;48.878;18.040;2023-04-29T04:13:50;98153.56;;;12.51;63.41
49297;BME280;35163;48.878;18.040;2023-04-29T04:16:20;98156.44;;;12.45;63.36
49297;BME280;35163;48.878;18.040;2023-04-29T04:18:47;98145.72;;;12.52;62.87
49297;BME280;35163;48.878;18.040;2023-04-29T04:21:13;98158.75;;;12.51;62.83
49297;BME280;35163;48.878;18.040;2023-04-29T04:23:40;98150.03;;;12.52;62.80
49297;BME280;35163;48.878;18.040;2023-04-29T04:26:07;98141.44;;;12.51;62.67
49297;BME280;35163;48.878;18.040;2023-04-29T04:28:33;98149.00;;;12.56;62.46
49297;BME280;35163;48.878;18.040;2023-04-29T04:31:00;98141.22;;;12.56;62.26
49297;BME280;35163;48.878;18.040;2023-04-29T04:33:27;98140.59;;;12.51;62.21
49297;BME280;35163;48.878;18.040;2023-04-29T04:35:54;98127.63;;;12.51;62.58
49297;BME280;35163;48.878;18.040;2023-04-29T04:38:21;98125.59;;;12.58;62.55
49297;BME280;35163;48.878;18.040;2023-04-29T04:40:50;98124.59;;;12.60;62.09
49297;BME280;35163;48.878;18.040;2023-04-29T04:43:17;98120.56;;;12.55;62.50
49297;BME280;35163;48.878;18.040;2023-04-29T04:45:46;98117.53;;;12.64;62.03
49297;BME280;35163;48.878;18.040;2023-04-29T04:48:13;98119.88;;;12.70;61.59
49297;BME280;35163;48.878;18.040;2023-04-29T04:50:40;98120.63;;;12.72;61.76
49297;BME280;35163;48.878;18.040;2023-04-29T04:53:06;98129.47;;;12.68;61.57
49297;BME280;35163;48.878;18.040;2023-04-29T04:55:33;98132.78;;;12.72;61.22
49297;BME280;35163;48.878;18.040;2023-04-29T04:58:00;98128.41;;;12.72;61.34
49297;BME280;35163;48.878;18.040;2023-04-29T05:00:26;98127.44;;;12.75;61.01
49297;BME280;35163;48.878;18.040;2023-04-29T05:02:53;98123.03;;;12.77;61.08
49297;BME280;35163;48.878;18.040;2023-04-29T05:05:20;98129.81;;;12.80;61.52
49297;BME280;35163;48.878;18.040;2023-04-29T05:07:47;98127.84;;;12.85;60.82
49297;BME280;35163;48.878;18.040;2023-04-29T05:10:13;98133.69;;;12.90;60.60
49297;BME280;35163;48.878;18.040;2023-04-29T05:12:40;98137.81;;;12.94;60.86
49297;BME280;35163;48.878;18.040;2023-04-29T05:15:07;98132.41;;;12.99;60.48
49297;BME280;35163;48.878;18.040;2023-04-29T05:17:34;98140.13;;;13.00;60.51
49297;BME280;35163;48.878;18.040;2023-04-29T05:20:02;98136.41;;;13.06;60.57
49297;BME280;35163;48.878;18.040;2023-04-29T05:22:29;98134.38;;;13.13;60.31
49297;BME280;35163;48.878;18.040;2023-04-29T05:24:56;98139.44;;;13.16;59.90
49297;BME280;35163;48.878;18.040;2023-04-29T05:27:28;98151.41;;;13.19;60.13
49297;BME280;35163;48.878;18.040;2023-04-29T05:29:55;98145.31;;;13.20;59.46
49297;BME280;35163;48.878;18.040;2023-04-29T05:32:22;98149.59;;;13.21;59.43
49297;BME280;35163;48.878;18.040;2023-04-29T05:34:49;98153.03;;;13.21;59.76
49297;BME280;35163;48.878;18.040;2023-04-29T05:37:18;98153.88;;;13.22;59.55
49297;BME280;35163;48.878;18.040;2023-04-29T05:39:44;98151.75;;;13.30;59.17
49297;BME280;35163;48.878;18.040;2023-04-29T05:42:11;98159.69;;;13.27;59.67
49297;BME280;35163;48.878;18.040;2023-04-29T05:44:38;98165.53;;;13.32;59.57
49297;BME280;35163;48.878;18.040;2023-04-29T05:47:05;98169.00;;;13.31;59.18
49297;BME280;35163;48.878;18.040;2023-04-29T05:49:31;98167.25;;;13.32;58.94
49297;BME280;35163;48.878;18.040;2023-04-29T05:51:58;98166.25;;;13.34;59.26
49297;BME280;35163;48.878;18.040;2023-04-29T05:54:29;98173.16;;;13.35;59.16
49297;BME280;35163;48.878;18.040;2023-04-29T05:56:56;98171.47;;;13.34;58.14
49297;BME280;35163;48.878;18.040;2023-04-29T05:59:23;98172.38;;;13.33;58.25
49297;BME280;35163;48.878;18.040;2023-04-29T06:01:49;98172.25;;;13.36;58.62
49297;BME280;35163;48.878;18.040;2023-04-29T06:04:16;98181.44;;;13.44;58.92
49297;BME280;35163;48.878;18.040;2023-04-29T06:06:43;98178.06;;;13.42;59.07
49297;BME280;35163;48.878;18.040;2023-04-29T06:09:10;98181.28;;;13.47;58.59
49297;BME280;35163;48.878;18.040;2023-04-29T06:11:52;98191.50;;;13.50;59.06
49297;BME280;35163;48.878;18.040;2023-04-29T06:14:18;98184.38;;;13.55;58.80
49297;BME280;35163;48.878;18.040;2023-04-29T06:16:45;98185.94;;;13.59;58.48
49297;BME280;35163;48.878;18.040;2023-04-29T06:19:12;98191.59;;;13.68;58.80
49297;BME280;35163;48.878;18.040;2023-04-29T06:21:39;98192.03;;;13.58;59.79
49297;BME280;35163;48.878;18.040;2023-04-29T06:24:06;98193.56;;;13.63;59.60
49297;BME280;35163;48.878;18.040;2023-04-29T06:26:33;98195.78;;;13.70;59.14
49297;BME280;35163;48.878;18.040;2023-04-29T06:28:59;98202.38;;;13.78;58.78
49297;BME280;35163;48.878;18.040;2023-04-29T06:31:26;98202.31;;;13.79;58.48
49297;BME280;35163;48.878;18.040;2023-04-29T06:33:55;98202.03;;;13.85;58.56
49297;BME280;35163;48.878;18.040;2023-04-29T06:36:22;98196.06;;;13.83;58.03
49297;BME280;35163;48.878;18.040;2023-04-29T06:38:49;98192.69;;;13.81;58.23
49297;BME280;35163;48.878;18.040;2023-04-29T06:41:16;98193.47;;;13.83;57.70
49297;BME280;35163;48.878;18.040;2023-04-29T06:43:43;98196.84;;;13.85;57.91
49297;BME280;35163;48.878;18.040;2023-04-29T06:46:12;98193.38;;;13.85;58.38
49297;BME280;35163;48.878;18.040;2023-04-29T06:48:38;98193.91;;;13.92;58.26
49297;BME280;35163;48.878;18.040;2023-04-29T06:51:05;98193.38;;;13.85;58.33
49297;BME280;35163;48.878;18.040;2023-04-29T06:53:32;98200.78;;;13.93;57.79
49297;BME280;35163;48.878;18.040;2023-04-29T06:55:59;98194.53;;;13.97;57.43
49297;BME280;35163;48.878;18.040;2023-04-29T06:58:26;98196.06;;;14.01;57.25
49297;BME280;35163;48.878;18.040;2023-04-29T07:00:52;98198.72;;;14.00;57.02
49297;BME280;35163;48.878;18.040;2023-04-29T07:03:19;98204.00;;;13.98;57.20
49297;BME280;35163;48.878;18.040;2023-04-29T07:05:46;98205.63;;;14.01;56.54
49297;BME280;35163;48.878;18.040;2023-04-29T07:08:13;98208.38;;;13.97;56.86
49297;BME280;35163;48.878;18.040;2023-04-29T07:10:40;98213.34;;;14.02;57.18
49297;BME280;35163;48.878;18.040;2023-04-29T07:13:07;98215.78;;;14.05;57.36
49297;BME280;35163;48.878;18.040;2023-04-29T07:15:34;98218.53;;;14.02;57.37
49297;BME280;35163;48.878;18.040;2023-04-29T07:18:05;98210.69;;;14.04;57.59
49297;BME280;35163;48.878;18.040;2023-04-29T07:20:32;98218.31;;;14.07;57.19
49297;BME280;35163;48.878;18.040;2023-04-29T07:23:01;98224.88;;;13.96;57.57
49297;BME280;35163;48.878;18.040;2023-04-29T07:25:28;98222.97;;;14.00;57.58
49297;BME280;35163;48.878;18.040;2023-04-29T07:27:57;98228.25;;;13.99;58.34
49297;BME280;35163;48.878;18.040;2023-04-29T07:30:24;98215.94;;;14.02;58.44
49297;BME280;35163;48.878;18.040;2023-04-29T07:32:51;98210.75;;;14.02;58.56
49297;BME280;35163;48.878;18.040;2023-04-29T07:35:20;98216.72;;;14.04;58.34
49297;BME280;35163;48.878;18.040;2023-04-29T07:37:47;98220.13;;;14.05;58.18
49297;BME280;35163;48.878;18.040;2023-04-29T07:40:13;98225.97;;;14.10;58.27
49297;BME280;35163;48.878;18.040;2023-04-29T07:42:40;98230.34;;;14.09;58.64
49297;BME280;35163;48.878;18.040;2023-04-29T07:45:07;98227.66;;;14.11;58.78
49297;BME280;35163;48.878;18.040;2023-04-29T07:47:36;98221.59;;;14.11;58.74
49297;BME280;35163;48.878;18.040;2023-04-29T07:50:03;98224.06;;;14.14;58.85
49297;BME280;35163;48.878;18.040;2023-04-29T07:52:32;98227.34;;;14.17;58.88
49297;BME280;35163;48.878;18.040;2023-04-29T07:54:59;98228.34;;;14.15;58.58
49297;BME280;35163;48.878;18.040;2023-04-29T07:57:28;98224.66;;;14.19;58.42
49297;BME280;35163;48.878;18.040;2023-04-29T07:59:55;98228.28;;;14.16;58.63
49297;BME280;35163;48.878;18.040;2023-04-29T08:02:22;98223.69;;;14.21;58.44
49297;BME280;35163;48.878;18.040;2023-04-29T08:04:49;98228.94;;;14.20;58.70
49297;BME280;35163;48.878;18.040;2023-04-29T08:07:17;98226.22;;;14.23;58.33
49297;BME280;35163;48.878;18.040;2023-04-29T08:09:44;98231.41;;;14.23;58.74
49297;BME280;35163;48.878;18.040;2023-04-29T08:12:10;98230.88;;;14.16;58.62
49297;BME280;35163;48.878;18.040;2023-04-29T08:14:37;98232.53;;;14.17;58.39
49297;BME280;35163;48.878;18.040;2023-04-29T08:17:04;98236.28;;;14.12;58.97
49297;BME280;35163;48.878;18.040;2023-04-29T08:19:31;98232.69;;;14.14;58.82
49297;BME280;35163;48.878;18.040;2023-04-29T08:21:58;98242.25;;;14.14;58.63
49297;BME280;35163;48.878;18.040;2023-04-29T08:24:26;98240.84;;;14.06;59.30
49297;BME280;35163;48.878;18.040;2023-04-29T08:26:54;98245.09;;;14.09;59.11
49297;BME280;35163;48.878;18.040;2023-04-29T08:29:21;98245.94;;;14.09;59.23
49297;BME280;35163;48.878;18.040;2023-04-29T08:31:48;98249.44;;;14.08;59.36
49297;BME280;35163;48.878;18.040;2023-04-29T08:34:15;98237.13;;;14.12;59.35
49297;BME280;35163;48.878;18.040;2023-04-29T08:36:42;98235.31;;;14.14;59.76
49297;BME280;35163;48.878;18.040;2023-04-29T08:39:08;98239.81;;;14.11;59.90
49297;BME280;35163;48.878;18.040;2023-04-29T08:41:35;98250.13;;;14.12;59.78
49297;BME280;35163;48.878;18.040;2023-04-29T08:44:02;98246.69;;;14.12;59.39
49297;BME280;35163;48.878;18.040;2023-04-29T08:46:29;98245.63;;;14.16;59.23
49297;BME280;35163;48.878;18.040;2023-04-29T08:48:57;98247.28;;;14.17;58.68
49297;BME280;35163;48.878;18.040;2023-04-29T08:51:24;98240.13;;;14.22;58.65
49297;BME280;35163;48.878;18.040;2023-04-29T08:53:52;98246.56;;;14.15;58.04
49297;BME280;35163;48.878;18.040;2023-04-29T08:56:21;98242.88;;;14.19;58.22
49297;BME280;35163;48.878;18.040;2023-04-29T08:58:49;98243.47;;;14.24;58.25
49297;BME280;35163;48.878;18.040;2023-04-29T09:01:27;98241.03;;;14.21;58.36
49297;BME280;35163;48.878;18.040;2023-04-29T09:06:32;98245.56;;;14.35;58.80
49297;BME280;35163;48.878;18.040;2023-04-29T09:09:00;98240.13;;;14.40;58.57
49297;BME280;35163;48.878;18.040;2023-04-29T09:11:29;98247.59;;;14.46;58.79
49297;BME280;35163;48.878;18.040;2023-04-29T09:14:00;98244.63;;;14.54;57.96
49297;BME280;35163;48.878;18.040;2023-04-29T09:16:29;98233.81;;;14.62;57.59
49297;BME280;35163;48.878;18.040;2023-04-29T09:18:56;98244.00;;;14.66;57.51
49297;BME280;35163;48.878;18.040;2023-04-29T09:21:25;98241.94;;;14.73;57.93
49297;BME280;35163;48.878;18.040;2023-04-29T09:23:56;98241.09;;;14.73;56.87
49297;BME280;35163;48.878;18.040;2023-04-29T09:26:24;98228.94;;;14.73;56.56
49297;BME280;35163;48.878;18.040;2023-04-29T09:29:10;98234.19;;;14.72;56.62
49297;BME280;35163;48.878;18.040;2023-04-29T09:31:39;98228.59;;;14.79;57.37
49297;BME280;35163;48.878;18.040;2023-04-29T09:34:08;98232.06;;;14.80;56.26
49297;BME280;35163;48.878;18.040;2023-04-29T09:36:48;98229.22;;;14.85;55.98
49297;BME280;35163;48.878;18.040;2023-04-29T09:39:17;98230.75;;;14.89;56.47
49297;BME280;35163;48.878;18.040;2023-04-29T09:47:04;98231.56;;;15.07;56.12
49297;BME280;35163;48.878;18.040;2023-04-29T09:49:36;98219.94;;;15.13;54.79
49297;BME280;35163;48.878;18.040;2023-04-29T09:52:06;98224.84;;;15.19;54.73
49297;BME280;35163;48.878;18.040;2023-04-29T09:54:34;98218.38;;;15.26;54.11
49297;BME280;35163;48.878;18.040;2023-04-29T09:57:02;98220.16;;;15.26;53.76
49297;BME280;35163;48.878;18.040;2023-04-29T09:59:33;98214.59;;;15.32;53.88
49297;BME280;35163;48.878;18.040;2023-04-29T10:02:07;98211.16;;;15.32;54.02
49297;BME280;35163;48.878;18.040;2023-04-29T10:04:39;98212.66;;;15.36;53.94
49297;BME280;35163;48.878;18.040;2023-04-29T10:07:07;98206.38;;;15.40;53.53
49297;BME280;35163;48.878;18.040;2023-04-29T10:09:36;98194.84;;;15.44;53.84
49297;BME280;35163;48.878;18.040;2023-04-29T10:12:04;98200.91;;;15.45;53.83
49297;BME280;35163;48.878;18.040;2023-04-29T10:14:39;98200.13;;;15.42;53.58
49297;BME280;35163;48.878;18.040;2023-04-29T10:17:42;98194.59;;;15.49;52.98
49297;BME280;35163;48.878;18.040;2023-04-29T10:20:21;98196.00;;;15.54;53.67
49297;BME280;35163;48.878;18.040;2023-04-29T10:22:51;98184.50;;;15.59;53.74
49297;BME280;35163;48.878;18.040;2023-04-29T10:25:19;98177.50;;;15.59;52.95
49297;BME280;35163;48.878;18.040;2023-04-29T10:27:47;98180.97;;;15.60;52.79
49297;BME280;35163;48.878;18.040;2023-04-29T10:30:16;98187.53;;;15.67;53.62
49297;BME280;35163;48.878;18.040;2023-04-29T10:32:44;98185.50;;;15.72;53.51
49297;BME280;35163;48.878;18.040;2023-04-29T10:35:18;98192.97;;;15.78;53.40
49297;BME280;35163;48.878;18.040;2023-04-29T10:37:46;98190.94;;;15.84;54.25
49297;BME280;35163;48.878;18.040;2023-04-29T10:40:21;98200.28;;;15.88;54.02
49297;BME280;35163;48.878;18.040;2023-04-29T10:42:51;98194.88;;;15.91;53.00
49297;BME280;35163;48.878;18.040;2023-04-29T10:45:28;98193.94;;;15.92;53.34
49297;BME280;35163;48.878;18.040;2023-04-29T10:50:28;98186.13;;;15.92;53.19
49297;BME280;35163;48.878;18.040;2023-04-29T10:52:55;98182.75;;;15.90;52.85
49297;BME280;35163;48.878;18.040;2023-04-29T10:55:23;98183.50;;;15.92;52.37
49297;BME280;35163;48.878;18.040;2023-04-29T10:57:54;98183.59;;;15.90;51.97
49297;BME280;35163;48.878;18.040;2023-04-29T11:00:27;98180.88;;;15.77;52.48
49297;BME280;35163;48.878;18.040;2023-04-29T11:02:54;98189.50;;;15.78;53.47
49297;BME280;35163;48.878;18.040;2023-04-29T11:05:35;98190.25;;;15.80;53.51
49297;BME280;35163;48.878;18.040;2023-04-29T11:08:28;98193.53;;;15.84;52.97
49297;BME280;35163;48.878;18.040;2023-04-29T11:10:59;98189.25;;;15.83;53.04
49297;BME280;35163;48.878;18.040;2023-04-29T11:13:30;98186.66;;;15.83;52.54
49297;BME280;35163;48.878;18.040;2023-04-29T11:16:08;98195.38;;;15.82;52.98
49297;BME280;35163;48.878;18.040;2023-04-29T11:19:08;98193.53;;;15.84;52.57
49297;BME280;35163;48.878;18.040;2023-04-29T11:21:36;98193.53;;;15.84;53.02
49297;BME280;35163;48.878;18.040;2023-04-29T11:24:04;98192.63;;;15.85;53.37
49297;BME280;35163;48.878;18.040;2023-04-29T11:26:35;98190.50;;;15.91;53.52
49297;BME280;35163;48.878;18.040;2023-04-29T11:29:03;98192.84;;;15.96;53.53
49297;BME280;35163;48.878;18.040;2023-04-29T11:31:31;98193.69;;;15.97;52.33
49297;BME280;35163;48.878;18.040;2023-04-29T11:33:59;98187.53;;;15.98;52.90
49297;BME280;35163;48.878;18.040;2023-04-29T11:36:26;98194.31;;;16.02;52.55
49297;BME280;35163;48.878;18.040;2023-04-29T11:38:52;98201.84;;;16.07;52.20
49297;BME280;35163;48.878;18.040;2023-04-29T11:41:20;98193.19;;;16.06;52.51
49297;BME280;35163;48.878;18.040;2023-04-29T11:43:57;98196.91;;;16.02;53.40
49297;BME280;35163;48.878;18.040;2023-04-29T11:46:25;98206.31;;;16.05;53.61
49297;BME280;35163;48.878;18.040;2023-04-29T11:48:53;98205.53;;;16.02;53.44
49297;BME280;35163;48.878;18.040;2023-04-29T11:51:20;98214.31;;;16.01;52.99
49297;BME280;35163;48.878;18.040;2023-04-29T11:53:51;98219.63;;;16.00;53.17
49297;BME280;35163;48.878;18.040;2023-04-29T11:56:20;98221.53;;;15.96;53.42
49297;BME280;35163;48.878;18.040;2023-04-29T11:58:55;98232.84;;;15.95;55.32
49297;BME280;35163;48.878;18.040;2023-04-29T12:01:22;98237.59;;;15.88;57.14
49297;BME280;35163;48.878;18.040;2023-04-29T12:03:50;98238.78;;;15.83;58.93
49297;BME280;35163;48.878;18.040;2023-04-29T12:06:17;98230.56;;;15.74;60.94
49297;BME280;35163;48.878;18.040;2023-04-29T12:08:47;98220.81;;;15.62;64.59
49297;BME280;35163;48.878;18.040;2023-04-29T12:11:13;98213.31;;;15.72;63.83
49297;BME280;35163;48.878;18.040;2023-04-29T12:13:40;98232.22;;;15.75;65.56
49297;BME280;35163;48.878;18.040;2023-04-29T12:16:09;98237.81;;;15.69;67.43
49297;BME280;35163;48.878;18.040;2023-04-29T12:18:36;98238.13;;;15.63;67.35
49297;BME280;35163;48.878;18.040;2023-04-29T12:21:04;98240.31;;;15.54;68.92
49297;BME280;35163;48.878;18.040;2023-04-29T12:23:34;98231.00;;;15.50;69.24
49297;BME280;35163;48.878;18.040;2023-04-29T12:26:01;98221.47;;;15.49;69.60
49297;BME280;35163;48.878;18.040;2023-04-29T12:28:29;98219.63;;;15.51;70.87
49297;BME280;35163;48.878;18.040;2023-04-29T12:30:57;98220.63;;;15.65;70.52
49297;BME280;35163;48.878;18.040;2023-04-29T12:33:27;98220.63;;;15.65;71.06
49297;BME280;35163;48.878;18.040;2023-04-29T12:35:56;98212.72;;;15.66;71.41
49297;BME280;35163;48.878;18.040;2023-04-29T12:38:25;98211.78;;;15.84;68.63
49297;BME280;35163;48.878;18.040;2023-04-29T12:40:58;98208.09;;;15.88;68.67
49297;BME280;35163;48.878;18.040;2023-04-29T12:43:29;98204.53;;;15.89;65.69
49297;BME280;35163;48.878;18.040;2023-04-29T12:48:29;98199.56;;;16.00;66.45
49297;BME280;35163;48.878;18.040;2023-04-29T12:51:00;98194.50;;;16.13;66.26
49297;BME280;35163;48.878;18.040;2023-04-29T12:53:30;98189.59;;;16.23;65.73
49297;BME280;35163;48.878;18.040;2023-04-29T12:55:57;98185.50;;;16.34;65.70
49297;BME280;35163;48.878;18.040;2023-04-29T12:58:27;98178.72;;;16.46;65.13
49297;BME280;35163;48.878;18.040;2023-04-29T13:00:55;98179.00;;;16.56;64.58
49297;BME280;35163;48.878;18.040;2023-04-29T13:03:23;98170.06;;;16.60;64.30
49297;BME280;35163;48.878;18.040;2023-04-29T13:05:50;98171.75;;;16.75;65.06
49297;BME280;35163;48.878;18.040;2023-04-29T13:08:21;98177.91;;;16.89;63.40
49297;BME280;35163;48.878;18.040;2023-04-29T13:10:50;98173.78;;;16.85;61.18
49297;BME280;35163;48.878;18.040;2023-04-29T13:13:17;98184.50;;;16.95;61.58
49297;BME280;35163;48.878;18.040;2023-04-29T13:15:44;98173.03;;;16.97;59.24
49297;BME280;35163;48.878;18.040;2023-04-29T13:18:10;98171.38;;;16.96;58.87
49297;BME280;35163;48.878;18.040;2023-04-29T13:20:37;98169.03;;;16.92;59.37
49297;BME280;35163;48.878;18.040;2023-04-29T13:23:08;98163.34;;;16.99;60.34